createdAt,value
2022-12-24T00:02:23.053Z,15.18
2022-12-24T00:04:55.605Z,13.70
2022-12-24T00:07:26.222Z,15.23
2022-12-24T00:09:53.782Z,15.57
2022-12-24T00:12:21.023Z,15.93
2022-12-24T00:14:48.581Z,17.33
2022-12-24T00:17:15.941Z,15.63
2022-12-24T00:19:44.152Z,16.42
2022-12-24T00:22:11.412Z,18.10
2022-12-24T00:24:39.028Z,18.27
2022-12-24T00:27:06.399Z,17.63
2022-12-24T00:29:34.075Z,18.17
2022-12-24T00:32:01.351Z,15.57
2022-12-24T00:34:28.945Z,17.27
2022-12-24T00:36:56.184Z,17.58
2022-12-24T00:39:23.823Z,19.08
2022-12-24T00:41:51.241Z,17.35
2022-12-24T00:44:18.874Z,18.17
2022-12-24T00:46:46.186Z,16.63
2022-12-24T00:49:14.232Z,17.33
2022-12-24T00:51:41.458Z,15.95
2022-12-24T00:54:09.579Z,17.40
2022-12-24T00:56:36.831Z,17.60
2022-12-24T00:59:04.378Z,18.35
2022-12-24T01:01:31.787Z,18.80
2022-12-24T01:04:18.014Z,18.08
2022-12-24T01:06:45.603Z,15.40
2022-12-24T01:09:13.218Z,16.88
2022-12-24T01:11:40.526Z,17.25
2022-12-24T01:14:08.907Z,17.15
2022-12-24T01:16:36.403Z,16.65
2022-12-24T01:19:04.116Z,15.98
2022-12-24T01:21:31.396Z,15.90
2022-12-24T01:23:58.913Z,18.25
2022-12-24T01:26:26.174Z,17.77
2022-12-24T01:28:53.772Z,16.13
2022-12-24T01:31:21.124Z,17.30
2022-12-24T01:33:49.485Z,18.08
2022-12-24T01:36:16.837Z,18.40
2022-12-24T01:38:44.419Z,16.70
2022-12-24T01:41:39.874Z,15.70
2022-12-24T01:47:14.277Z,16.40
2022-12-24T01:50:03.294Z,15.18
2022-12-24T01:52:36.143Z,19.90
2022-12-24T01:55:07.925Z,16.20
2022-12-24T01:57:47.210Z,18.23
2022-12-24T02:00:16.026Z,18.33
2022-12-24T02:02:46.977Z,15.80
2022-12-24T02:05:20.373Z,17.27
2022-12-24T02:07:48.199Z,16.48
2022-12-24T02:10:17.304Z,16.83
2022-12-24T02:12:46.044Z,17.20
2022-12-24T02:15:17.598Z,16.33
2022-12-24T02:17:51.107Z,16.60
2022-12-24T02:21:12.697Z,18.13
2022-12-24T02:24:01.805Z,18.33
2022-12-24T02:26:56.798Z,18.65
2022-12-24T02:29:43.394Z,15.00
2022-12-24T02:32:26.423Z,17.55
2022-12-24T02:35:15.918Z,16.85
2022-12-24T02:37:49.223Z,16.13
2022-12-24T02:40:23.595Z,16.65
2022-12-24T02:42:56.784Z,16.08
2022-12-24T02:45:30.446Z,17.75
2022-12-24T02:47:58.989Z,17.73
2022-12-24T02:50:26.900Z,15.27
2022-12-24T02:52:54.501Z,15.18
2022-12-24T02:55:29.456Z,15.55
2022-12-24T02:58:32.807Z,17.67
2022-12-24T03:01:26.336Z,18.15
2022-12-24T03:04:18.447Z,16.77
2022-12-24T03:06:48.684Z,17.92
2022-12-24T03:09:30.567Z,16.98
2022-12-24T03:12:12.172Z,17.50
2022-12-24T03:14:41.911Z,15.52
2022-12-24T03:17:10.293Z,16.13
2022-12-24T03:19:39.090Z,15.63
2022-12-24T03:22:10.638Z,17.75
2022-12-24T03:24:38.364Z,17.02
2022-12-24T03:27:08.250Z,15.77
2022-12-24T03:29:36.141Z,15.98
2022-12-24T03:32:04.742Z,15.10
2022-12-24T03:34:32.486Z,14.48
2022-12-24T03:36:59.740Z,14.35
2022-12-24T03:39:27.290Z,14.32
2022-12-24T03:41:54.635Z,15.00
2022-12-24T03:44:22.185Z,14.98
2022-12-24T03:46:49.495Z,17.58
2022-12-24T03:49:18.018Z,16.15
2022-12-24T03:51:45.231Z,13.55
2022-12-24T03:54:12.910Z,15.77
2022-12-24T03:56:40.149Z,15.00
2022-12-24T03:59:07.759Z,16.10
2022-12-24T04:01:35.155Z,17.40
2022-12-24T04:04:02.965Z,14.35
2022-12-24T04:06:30.268Z,13.75
2022-12-24T04:09:01.602Z,15.07
2022-12-24T04:11:28.995Z,14.25
2022-12-24T04:13:57.676Z,14.75
2022-12-24T04:16:25.137Z,14.40
2022-12-24T04:18:52.821Z,16.17
2022-12-24T04:21:20.071Z,15.18
2022-12-24T04:23:48.251Z,15.18
2022-12-24T04:26:15.638Z,15.20
2022-12-24T04:28:43.493Z,15.63
2022-12-24T04:31:13.899Z,13.77
2022-12-24T04:33:41.812Z,14.82
2022-12-24T04:36:12.926Z,16.13
2022-12-24T04:38:40.879Z,15.63
2022-12-24T04:41:26.394Z,14.98
2022-12-24T04:43:55.390Z,15.25
2022-12-24T04:46:26.625Z,11.85
2022-12-24T04:48:54.983Z,15.55
2022-12-24T04:51:23.786Z,14.43
2022-12-24T04:53:51.811Z,13.27
2022-12-24T04:56:25.355Z,13.63
2022-12-24T04:58:53.784Z,13.25
2022-12-24T05:01:27.014Z,14.77
2022-12-24T05:03:55.443Z,14.15
2022-12-24T05:06:26.235Z,12.75
2022-12-24T05:08:55.834Z,13.77
2022-12-24T05:11:23.637Z,14.57
2022-12-24T05:13:51.251Z,12.60
2022-12-24T05:16:21.141Z,13.48
2022-12-24T05:18:48.992Z,19.02
2022-12-24T05:21:20.620Z,13.38
2022-12-24T05:24:07.458Z,13.90
2022-12-24T05:26:40.964Z,15.88
2022-12-24T05:29:09.833Z,16.02
2022-12-24T05:31:37.351Z,15.77
2022-12-24T05:34:04.876Z,14.02
2022-12-24T05:36:32.443Z,12.98
2022-12-24T05:39:00.197Z,12.02
2022-12-24T05:41:27.892Z,13.13
2022-12-24T05:43:55.892Z,12.55
2022-12-24T05:46:25.220Z,13.88
2022-12-24T05:48:53.223Z,12.88
2022-12-24T05:51:22.389Z,15.88
2022-12-24T05:53:51.327Z,12.98
2022-12-24T05:56:22.118Z,12.27
2022-12-24T05:58:50.400Z,13.75
2022-12-24T06:01:18.063Z,14.77
2022-12-24T06:03:46.483Z,11.05
2022-12-24T06:06:19.111Z,12.27
2022-12-24T06:08:47.964Z,9.73
2022-12-24T06:11:19.605Z,12.15
2022-12-24T06:13:47.804Z,16.20
2022-12-24T06:16:17.627Z,12.43
2022-12-24T06:18:46.480Z,10.32
2022-12-24T06:21:14.090Z,11.52
2022-12-24T06:23:43.312Z,13.30
2022-12-24T06:26:16.630Z,10.77
2022-12-24T06:28:45.118Z,9.18
2022-12-24T06:31:14.654Z,10.70
2022-12-24T06:33:42.640Z,11.80
2022-12-24T06:36:17.467Z,10.98
2022-12-24T06:38:46.692Z,10.40
2022-12-24T06:41:14.468Z,10.05
2022-12-24T06:43:50.789Z,14.15
2022-12-24T06:46:19.313Z,15.52
2022-12-24T06:48:47.561Z,16.70
2022-12-24T06:51:19.421Z,17.50
2022-12-24T06:53:48.386Z,12.50
2022-12-24T06:56:15.624Z,13.85
2022-12-24T06:58:43.910Z,17.00
2022-12-24T07:01:13.728Z,13.68
2022-12-24T07:03:42.209Z,12.38
2022-12-24T07:06:21.642Z,12.75
2022-12-24T07:08:49.600Z,14.63
2022-12-24T07:11:17.737Z,23.52
2022-12-24T07:13:46.527Z,28.55
2022-12-24T07:16:14.359Z,23.38
2022-12-24T07:18:42.016Z,22.20
2022-12-24T07:21:09.284Z,14.15
2022-12-24T07:23:36.901Z,18.98
2022-12-24T07:26:06.060Z,18.58
2022-12-24T07:28:34.095Z,20.58
2022-12-24T07:31:01.546Z,16.83
2022-12-24T07:33:29.131Z,14.35
2022-12-24T07:36:05.197Z,17.73
2022-12-24T07:38:33.571Z,19.73
2022-12-24T07:41:01.141Z,11.63
2022-12-24T07:43:28.869Z,12.20
2022-12-24T07:45:59.062Z,13.48
2022-12-24T07:48:28.681Z,14.15
2022-12-24T07:50:57.213Z,14.00
2022-12-24T07:53:26.662Z,12.65
2022-12-24T07:55:54.684Z,20.50
2022-12-24T07:58:23.206Z,17.20
2022-12-24T08:00:56.016Z,13.18
2022-12-24T08:03:23.719Z,18.23
2022-12-24T08:05:52.684Z,11.70
2022-12-24T08:08:20.598Z,13.73
2022-12-24T08:10:47.913Z,13.35
2022-12-24T08:13:15.849Z,17.83
2022-12-24T08:15:43.916Z,22.20
2022-12-24T08:18:11.976Z,23.38
2022-12-24T08:20:40.623Z,23.25
2022-12-24T08:23:08.600Z,24.17
2022-12-24T08:25:36.560Z,16.52
2022-12-24T08:28:05.202Z,22.45
2022-12-24T08:30:32.567Z,29.35
2022-12-24T08:33:00.142Z,18.60
2022-12-24T08:35:27.683Z,18.83
2022-12-24T08:37:55.249Z,19.45
2022-12-24T08:40:22.606Z,26.92
2022-12-24T08:42:50.289Z,25.48
2022-12-24T08:45:17.737Z,17.70
2022-12-24T08:47:45.325Z,19.67
2022-12-24T08:50:13.156Z,15.20
2022-12-24T08:52:40.732Z,17.40
2022-12-24T08:55:08.522Z,30.05
2022-12-24T08:57:38.982Z,17.48
2022-12-24T09:00:07.004Z,18.05
2022-12-24T09:02:34.853Z,18.95
2022-12-24T09:05:02.362Z,21.73
2022-12-24T09:07:29.918Z,21.92
2022-12-24T09:09:57.180Z,17.30
2022-12-24T09:12:24.784Z,21.38
2022-12-24T09:14:59.616Z,24.75
2022-12-24T09:17:30.762Z,28.77
2022-12-24T09:19:58.028Z,30.52
2022-12-24T09:22:25.612Z,26.15
2022-12-24T09:24:56.108Z,22.67
2022-12-24T09:27:23.706Z,24.83
2022-12-24T09:29:51.082Z,19.00
2022-12-24T09:32:18.753Z,28.50
2022-12-24T09:34:46.143Z,19.15
2022-12-24T09:37:13.810Z,23.70
2022-12-24T09:39:41.350Z,24.65
2022-12-24T09:42:53.393Z,23.40
2022-12-24T09:45:38.419Z,22.02
2022-12-24T09:48:15.431Z,22.88
2022-12-24T09:50:57.054Z,23.30
2022-12-24T09:53:29.164Z,22.38
2022-12-24T09:56:03.208Z,22.38
2022-12-24T09:58:45.732Z,26.90
2022-12-24T10:01:15.758Z,33.10
2022-12-24T10:03:44.738Z,28.58
2022-12-24T10:06:28.554Z,22.52
2022-12-24T10:09:16.926Z,24.52
2022-12-24T10:11:52.728Z,31.70
2022-12-24T10:14:30.227Z,22.65
2022-12-24T10:17:20.558Z,26.00
2022-12-24T10:20:14.138Z,29.98
2022-12-24T10:22:47.127Z,21.35
2022-12-24T10:25:21.500Z,20.70
2022-12-24T10:27:48.781Z,34.03
2022-12-24T10:30:19.728Z,23.98
2022-12-24T10:32:52.485Z,21.88
2022-12-24T10:35:29.148Z,24.33
2022-12-24T10:37:58.071Z,24.27
2022-12-24T10:40:43.092Z,23.50
2022-12-24T10:43:18.493Z,21.73
2022-12-24T10:46:22.605Z,16.17
2022-12-24T10:48:50.949Z,23.70
2022-12-24T10:51:51.146Z,20.77
2022-12-24T10:54:27.055Z,17.15
2022-12-24T10:57:00.711Z,19.50
2022-12-24T10:59:30.939Z,20.13
2022-12-24T11:02:00.879Z,19.77
2022-12-24T11:04:31.165Z,16.90
2022-12-24T11:07:04.979Z,17.98
2022-12-24T11:09:35.343Z,17.90
2022-12-24T11:12:09.162Z,20.20
2022-12-24T11:14:40.089Z,14.13
2022-12-24T11:17:18.307Z,14.70
2022-12-24T11:19:49.219Z,14.75
2022-12-24T11:22:33.310Z,16.15
2022-12-24T11:25:31.782Z,18.30
2022-12-24T11:28:35.103Z,18.80
2022-12-24T11:31:21.258Z,15.73
2022-12-24T11:33:52.637Z,23.55
2022-12-24T11:36:31.275Z,21.63
2022-12-24T11:38:59.235Z,30.52
2022-12-24T11:41:37.391Z,28.63
2022-12-24T11:44:07.779Z,33.08
2022-12-24T11:46:47.143Z,23.58
2022-12-24T11:49:24.573Z,28.40
2022-12-24T11:52:18.959Z,28.10
2022-12-24T11:55:16.457Z,32.72
2022-12-24T11:57:53.884Z,25.63
2022-12-24T12:00:21.406Z,22.95
2022-12-24T12:02:51.451Z,23.60
2022-12-24T12:05:27.625Z,29.73
2022-12-24T12:08:02.511Z,21.85
2022-12-24T12:10:38.474Z,18.58
2022-12-24T12:13:15.819Z,21.95
2022-12-24T12:16:04.409Z,22.13
2022-12-24T12:18:47.074Z,24.75
2022-12-24T12:21:19.262Z,19.10
2022-12-24T12:23:52.463Z,25.25
2022-12-24T12:26:32.048Z,24.42
2022-12-24T12:29:11.403Z,22.17
2022-12-24T12:31:53.170Z,38.65
2022-12-24T12:34:29.207Z,32.17
2022-12-24T12:37:01.855Z,30.50
2022-12-24T12:39:31.411Z,31.40
2022-12-24T12:42:21.526Z,21.13
2022-12-24T12:44:57.748Z,38.55
2022-12-24T12:47:45.902Z,27.10
2022-12-24T12:50:28.330Z,26.48
2022-12-24T12:53:07.818Z,26.42
2022-12-24T12:56:01.466Z,28.75
2022-12-24T12:59:01.409Z,22.13
2022-12-24T13:01:57.191Z,25.67
2022-12-24T13:04:49.554Z,22.63
2022-12-24T13:07:54.943Z,30.33
2022-12-24T13:10:25.441Z,31.95
2022-12-24T13:12:55.759Z,26.42
2022-12-24T13:15:56.720Z,27.05
2022-12-24T13:18:55.275Z,18.35
2022-12-24T13:21:25.591Z,19.67
2022-12-24T13:24:27.966Z,22.65
2022-12-24T13:27:12.035Z,24.23
2022-12-24T13:30:09.278Z,29.48
2022-12-24T13:32:40.342Z,25.63
2022-12-24T13:35:19.674Z,24.75
2022-12-24T13:37:48.885Z,19.65
2022-12-24T13:40:27.303Z,28.20
2022-12-24T13:43:01.335Z,25.23
2022-12-24T13:45:31.716Z,24.80
2022-12-24T13:48:05.526Z,24.00
2022-12-24T13:50:51.324Z,23.23
2022-12-24T13:53:33.704Z,23.27
2022-12-24T13:56:20.984Z,22.77
2022-12-24T13:59:09.082Z,22.85
2022-12-24T14:01:41.141Z,15.27
2022-12-24T14:04:21.356Z,23.13
2022-12-24T14:06:51.820Z,21.10
2022-12-24T14:09:24.953Z,18.55
2022-12-24T14:12:01.286Z,15.55
2022-12-24T14:14:34.598Z,17.77
2022-12-24T14:17:08.707Z,17.52
2022-12-24T14:19:39.160Z,16.40
2022-12-24T14:22:15.342Z,20.15
2022-12-24T14:24:46.118Z,17.45
2022-12-24T14:27:25.517Z,16.73
2022-12-24T14:30:07.074Z,16.50
2022-12-24T14:32:40.438Z,10.32
2022-12-24T14:35:13.995Z,13.48
2022-12-24T14:37:56.636Z,13.63
2022-12-24T14:40:38.870Z,16.45
2022-12-24T14:43:18.804Z,13.73
2022-12-24T14:46:14.427Z,15.57
2022-12-24T14:48:50.340Z,15.40
2022-12-24T14:51:36.609Z,17.95
2022-12-24T14:54:10.945Z,16.23
2022-12-24T14:56:38.599Z,17.20
2022-12-24T14:59:19.844Z,13.05
2022-12-24T15:01:47.761Z,12.95
2022-12-24T15:04:17.990Z,13.45
2022-12-24T15:06:53.814Z,15.65
2022-12-24T15:09:27.018Z,11.77
2022-12-24T15:11:58.520Z,15.65
2022-12-24T15:14:28.543Z,15.18
2022-12-24T15:17:00.322Z,11.73
2022-12-24T15:19:43.474Z,11.98
2022-12-24T15:22:25.982Z,14.13
2022-12-24T15:24:53.708Z,12.90
2022-12-24T15:27:26.675Z,10.10
2022-12-24T15:29:57.703Z,12.25
2022-12-24T15:32:25.362Z,9.93
2022-12-24T15:34:55.061Z,12.35
2022-12-24T15:37:28.112Z,14.60
2022-12-24T15:40:11.263Z,11.43
2022-12-24T15:42:42.427Z,12.15
2022-12-24T15:45:20.259Z,13.45
2022-12-24T15:47:57.812Z,12.55
2022-12-24T15:50:29.054Z,11.32
2022-12-24T15:53:19.905Z,11.27
2022-12-24T15:56:01.275Z,13.15
2022-12-24T15:58:31.766Z,12.07
2022-12-24T16:01:07.159Z,11.75
2022-12-24T16:03:36.806Z,13.85
2022-12-24T16:06:05.104Z,11.00
2022-12-24T16:08:35.071Z,15.13
2022-12-24T16:11:05.415Z,13.38
2022-12-24T16:13:36.420Z,10.18
2022-12-24T16:16:07.178Z,11.98
2022-12-24T16:18:43.366Z,10.35
2022-12-24T16:21:37.919Z,10.38
2022-12-24T16:24:23.960Z,10.00
2022-12-24T16:26:52.211Z,12.50
2022-12-24T16:29:20.282Z,10.80
2022-12-24T16:31:52.676Z,9.85
2022-12-24T16:34:24.256Z,10.75
2022-12-24T16:36:51.603Z,10.50
2022-12-24T16:39:30.497Z,11.00
2022-12-24T16:42:19.062Z,9.85
2022-12-24T16:44:47.521Z,11.73
2022-12-24T16:47:22.700Z,10.02
2022-12-24T16:49:50.852Z,10.75
2022-12-24T16:52:25.858Z,12.30
2022-12-24T16:54:53.450Z,8.77
2022-12-24T16:57:23.099Z,9.27
2022-12-24T16:59:51.744Z,9.95
2022-12-24T17:02:22.459Z,14.20
2022-12-24T17:04:50.599Z,12.38
2022-12-24T17:07:20.691Z,11.45
2022-12-24T17:09:48.445Z,10.10
2022-12-24T17:12:16.039Z,10.55
2022-12-24T17:14:43.700Z,11.73
2022-12-24T17:17:21.641Z,9.20
2022-12-24T17:19:49.196Z,8.38
2022-12-24T17:22:16.781Z,10.52
2022-12-24T17:24:44.373Z,9.52
2022-12-24T17:27:11.875Z,10.48
2022-12-24T17:29:39.509Z,11.82
2022-12-24T17:32:07.178Z,11.02
2022-12-24T17:34:34.829Z,11.32
2022-12-24T17:37:02.125Z,11.10
2022-12-24T17:39:29.704Z,9.13
2022-12-24T17:41:57.338Z,10.40
2022-12-24T17:44:24.982Z,10.20
2022-12-24T17:46:52.779Z,9.23
2022-12-24T17:49:20.596Z,9.38
2022-12-24T17:51:48.399Z,8.65
2022-12-24T17:54:15.930Z,8.65
2022-12-24T17:56:43.241Z,10.23
2022-12-24T17:59:10.969Z,9.50
2022-12-24T18:01:38.305Z,12.32
2022-12-24T18:04:06.281Z,8.00
2022-12-24T18:06:34.223Z,9.15
2022-12-24T18:09:01.833Z,8.55
2022-12-24T18:11:33.094Z,10.55
2022-12-24T18:14:02.415Z,8.90
2022-12-24T18:16:35.902Z,11.88
2022-12-24T18:19:05.095Z,9.38
2022-12-24T18:21:33.283Z,8.52
2022-12-24T18:24:01.431Z,9.98
2022-12-24T18:26:30.679Z,9.90
2022-12-24T18:29:00.022Z,9.80
2022-12-24T18:31:29.489Z,8.32
2022-12-24T18:33:57.743Z,10.48
2022-12-24T18:36:25.189Z,8.68
2022-12-24T18:38:52.836Z,9.38
2022-12-24T18:41:23.406Z,9.45
2022-12-24T18:43:52.060Z,9.77
2022-12-24T18:46:23.352Z,9.75
2022-12-24T18:48:52.257Z,9.43
2022-12-24T18:51:24.777Z,9.68
2022-12-24T18:53:53.087Z,8.52
2022-12-24T18:56:23.158Z,9.50
2022-12-24T18:58:59.899Z,10.73
2022-12-24T19:01:33.673Z,8.68
2022-12-24T19:04:02.160Z,8.38
2022-12-24T19:06:29.422Z,9.38
2022-12-24T19:09:00.219Z,9.98
2022-12-24T19:11:33.976Z,9.80
2022-12-24T19:14:02.502Z,9.52
2022-12-24T19:16:34.844Z,9.35
2022-12-24T19:19:03.746Z,8.52
2022-12-24T19:21:31.267Z,9.18
2022-12-24T19:23:58.938Z,8.45
2022-12-24T19:26:26.336Z,9.23
2022-12-24T19:28:55.083Z,9.30
2022-12-24T19:31:24.913Z,7.57
2022-12-24T19:33:55.110Z,8.50
2022-12-24T19:36:25.596Z,9.35
2022-12-24T19:38:53.589Z,9.20
2022-12-24T19:41:24.483Z,8.27
2022-12-24T19:43:55.429Z,9.02
2022-12-24T19:46:26.271Z,9.00
2022-12-24T19:48:57.100Z,7.95
2022-12-24T19:51:26.228Z,10.13
2022-12-24T19:53:55.951Z,7.72
2022-12-24T19:56:24.634Z,8.75
2022-12-24T19:58:52.495Z,10.18
2022-12-24T20:01:22.266Z,10.20
2022-12-24T20:03:51.998Z,8.88
2022-12-24T20:06:21.967Z,8.27
2022-12-24T20:08:50.240Z,8.88
2022-12-24T20:11:20.392Z,10.07
2022-12-24T20:13:48.372Z,8.40
2022-12-24T21:03:50.394Z,8.60
2022-12-24T21:06:19.291Z,8.43
2022-12-24T21:08:49.385Z,10.70
2022-12-24T21:11:36.062Z,10.48
2022-12-24T21:14:03.729Z,10.80
2022-12-24T21:16:32.583Z,10.32
2022-12-24T21:19:00.169Z,10.38
2022-12-24T21:21:27.984Z,10.15
2022-12-24T21:23:55.340Z,11.23
2022-12-24T21:26:23.303Z,11.20
2022-12-24T21:28:50.763Z,10.85
2022-12-24T21:31:18.424Z,10.77
2022-12-24T21:33:45.752Z,12.40
2022-12-24T21:36:14.937Z,9.27
2022-12-24T21:38:42.750Z,9.15
2022-12-24T21:41:18.809Z,10.57
2022-12-24T21:43:46.280Z,10.48
2022-12-24T21:46:22.983Z,12.00
2022-12-24T21:49:13.066Z,9.95
2022-12-24T21:51:43.254Z,11.70
2022-12-24T21:54:31.182Z,10.45
2022-12-24T21:57:23.617Z,12.55
2022-12-24T21:59:56.309Z,10.85
2022-12-24T22:02:28.467Z,10.55
2022-12-24T22:04:56.367Z,10.82
2022-12-24T22:07:46.414Z,11.50
2022-12-24T22:10:33.464Z,13.38
2022-12-24T22:13:06.267Z,19.23
2022-12-24T22:15:35.574Z,13.38
2022-12-24T22:18:03.391Z,13.63
2022-12-24T22:20:30.665Z,14.32
2022-12-24T22:22:58.177Z,12.23
2022-12-24T22:25:25.402Z,11.13
2022-12-24T22:27:53.115Z,13.68
2022-12-24T22:30:20.912Z,12.57
2022-12-24T22:32:48.525Z,10.85
2022-12-24T22:35:16.160Z,12.82
2022-12-24T22:37:44.383Z,14.23
2022-12-24T22:40:12.374Z,12.98
2022-12-24T22:42:40.950Z,9.77
2022-12-24T22:45:09.572Z,11.25
2022-12-24T22:47:37.181Z,10.65
2022-12-24T22:50:05.131Z,10.80
2022-12-24T22:52:34.482Z,12.75
2022-12-24T22:55:02.231Z,12.57
2022-12-24T22:57:30.539Z,12.50
2022-12-24T22:59:58.359Z,12.68
2022-12-24T23:02:28.767Z,10.00
2022-12-24T23:04:56.572Z,13.15
2022-12-24T23:07:24.729Z,12.07
2022-12-24T23:09:52.053Z,13.40
2022-12-24T23:12:39.634Z,12.20
2022-12-24T23:15:07.551Z,13.80
2022-12-24T23:17:35.106Z,13.90
2022-12-24T23:20:03.801Z,12.95
2022-12-24T23:22:31.608Z,11.18
2022-12-24T23:24:58.866Z,12.02
2022-12-24T23:27:26.443Z,12.32
2022-12-24T23:29:53.675Z,11.82
2022-12-24T23:32:22.788Z,13.45
2022-12-24T23:34:50.087Z,12.95
2022-12-24T23:37:17.623Z,12.32
2022-12-24T23:39:44.994Z,12.30
2022-12-24T23:42:12.666Z,13.85
2022-12-24T23:44:40.634Z,12.02
2022-12-24T23:47:08.308Z,14.27
2022-12-24T23:49:36.657Z,10.57
2022-12-24T23:52:04.295Z,11.43
2022-12-24T23:54:31.710Z,12.85
2022-12-24T23:56:59.312Z,11.38
2022-12-24T23:59:26.624Z,12.73
